sensor_id;sensor_type;location;lat;lon;timestamp;pressure;altitude;pressure_sealevel;temperature;humidity
77013;BME280;67260;53.130;17.982;2023-07-09T00:01:15;101689.14;;;17.40;59.33
77013;BME280;67260;53.130;17.982;2023-07-09T00:03:46;101690.67;;;17.33;59.49
77013;BME280;67260;53.130;17.982;2023-07-09T00:06:18;101695.92;;;17.26;59.61
77013;BME280;67260;53.130;17.982;2023-07-09T00:08:45;101699.86;;;17.19;59.80
77013;BME280;67260;53.130;17.982;2023-07-09T00:11:15;101702.81;;;17.12;59.90
77013;BME280;67260;53.130;17.982;2023-07-09T00:13:41;101702.42;;;17.07;60.10
77013;BME280;67260;53.130;17.982;2023-07-09T00:16:34;101704.00;;;17.02;60.34
77013;BME280;67260;53.130;17.982;2023-07-09T00:19:00;101695.35;;;16.96;60.41
77013;BME280;67260;53.130;17.982;2023-07-09T00:21:29;101693.30;;;16.92;60.30
77013;BME280;67260;53.130;17.982;2023-07-09T00:24:00;101694.90;;;16.90;60.70
77013;BME280;67260;53.130;17.982;2023-07-09T00:26:31;101696.86;;;16.87;60.78
77013;BME280;67260;53.130;17.982;2023-07-09T00:28:59;101698.95;;;16.85;61.01
77013;BME280;67260;53.130;17.982;2023-07-09T00:31:26;101699.05;;;16.84;61.07
77013;BME280;67260;53.130;17.982;2023-07-09T00:33:53;101700.44;;;16.81;61.29
77013;BME280;67260;53.130;17.982;2023-07-09T00:36:30;101699.30;;;16.84;61.22
77013;BME280;67260;53.130;17.982;2023-07-09T00:39:00;101698.36;;;16.86;61.46
77013;BME280;67260;53.130;17.982;2023-07-09T00:41:34;101698.14;;;16.77;61.65
77013;BME280;67260;53.130;17.982;2023-07-09T00:44:24;101699.02;;;16.69;61.99
77013;BME280;67260;53.130;17.982;2023-07-09T00:49:32;101699.14;;;16.57;62.59
77013;BME280;67260;53.130;17.982;2023-07-09T00:52:03;101696.86;;;16.53;62.96
77013;BME280;67260;53.130;17.982;2023-07-09T00:54:35;101695.89;;;16.51;62.86
77013;BME280;67260;53.130;17.982;2023-07-09T00:57:08;101694.23;;;16.53;62.88
77013;BME280;67260;53.130;17.982;2023-07-09T00:59:37;101694.95;;;16.47;62.83
77013;BME280;67260;53.130;17.982;2023-07-09T01:02:07;101694.00;;;16.42;62.95
77013;BME280;67260;53.130;17.982;2023-07-09T01:04:34;101692.41;;;16.45;63.03
77013;BME280;67260;53.130;17.982;2023-07-09T01:07:02;101694.21;;;16.46;62.89
77013;BME280;67260;53.130;17.982;2023-07-09T01:09:28;101695.38;;;16.41;62.91
77013;BME280;67260;53.130;17.982;2023-07-09T01:11:54;101697.16;;;16.31;63.04
77013;BME280;67260;53.130;17.982;2023-07-09T01:14:23;101701.09;;;16.25;63.35
77013;BME280;67260;53.130;17.982;2023-07-09T01:17:00;101696.48;;;16.19;63.51
77013;BME280;67260;53.130;17.982;2023-07-09T01:19:29;101696.95;;;16.17;63.62
77013;BME280;67260;53.130;17.982;2023-07-09T01:22:00;101700.60;;;16.15;63.95
77013;BME280;67260;53.130;17.982;2023-07-09T01:24:50;101703.70;;;16.13;63.78
77013;BME280;67260;53.130;17.982;2023-07-09T01:27:19;101702.78;;;16.11;64.28
77013;BME280;67260;53.130;17.982;2023-07-09T01:29:47;101702.77;;;16.12;64.07
77013;BME280;67260;53.130;17.982;2023-07-09T01:32:16;101702.37;;;16.06;64.11
77013;BME280;67260;53.130;17.982;2023-07-09T01:34:49;101698.60;;;15.98;64.09
77013;BME280;67260;53.130;17.982;2023-07-09T01:37:17;101698.50;;;15.95;64.39
77013;BME280;67260;53.130;17.982;2023-07-09T01:39:45;101710.45;;;15.91;64.66
77013;BME280;67260;53.130;17.982;2023-07-09T01:42:11;101709.81;;;15.87;64.77
77013;BME280;67260;53.130;17.982;2023-07-09T01:44:38;101703.59;;;15.87;65.08
77013;BME280;67260;53.130;17.982;2023-07-09T01:47:06;101705.51;;;15.89;65.10
77013;BME280;67260;53.130;17.982;2023-07-09T01:49:32;101705.91;;;15.90;64.90
77013;BME280;67260;53.130;17.982;2023-07-09T01:52:01;101705.18;;;15.89;65.03
77013;BME280;67260;53.130;17.982;2023-07-09T01:54:30;101711.78;;;15.88;65.09
77013;BME280;67260;53.130;17.982;2023-07-09T01:57:13;101716.70;;;15.87;65.05
77013;BME280;67260;53.130;17.982;2023-07-09T01:59:41;101719.83;;;15.87;65.29
77013;BME280;67260;53.130;17.982;2023-07-09T02:02:08;101719.80;;;15.79;65.39
77013;BME280;67260;53.130;17.982;2023-07-09T02:04:34;101723.48;;;15.76;65.53
77013;BME280;67260;53.130;17.982;2023-07-09T02:07:00;101722.36;;;15.73;65.59
77013;BME280;67260;53.130;17.982;2023-07-09T02:09:26;101719.48;;;15.64;65.64
77013;BME280;67260;53.130;17.982;2023-07-09T02:11:52;101725.60;;;15.56;65.95
77013;BME280;67260;53.130;17.982;2023-07-09T02:14:18;101729.17;;;15.49;66.24
77013;BME280;67260;53.130;17.982;2023-07-09T02:16:45;101728.97;;;15.49;66.37
77013;BME280;67260;53.130;17.982;2023-07-09T02:19:11;101734.14;;;15.52;66.34
77013;BME280;67260;53.130;17.982;2023-07-09T02:21:37;101731.09;;;15.53;66.30
77013;BME280;67260;53.130;17.982;2023-07-09T02:24:03;101729.29;;;15.52;66.44
77013;BME280;67260;53.130;17.982;2023-07-09T02:26:29;101726.08;;;15.50;66.47
77013;BME280;67260;53.130;17.982;2023-07-09T02:28:55;101727.20;;;15.47;66.52
77013;BME280;67260;53.130;17.982;2023-07-09T02:31:21;101726.46;;;15.39;66.70
77013;BME280;67260;53.130;17.982;2023-07-09T02:33:47;101728.14;;;15.33;66.96
77013;BME280;67260;53.130;17.982;2023-07-09T02:36:13;101727.81;;;15.32;67.13
77013;BME280;67260;53.130;17.982;2023-07-09T02:38:39;101726.51;;;15.38;67.05
77013;BME280;67260;53.130;17.982;2023-07-09T02:41:05;101723.28;;;15.41;67.02
77013;BME280;67260;53.130;17.982;2023-07-09T02:43:31;101724.66;;;15.36;66.98
77013;BME280;67260;53.130;17.982;2023-07-09T02:45:57;101728.90;;;15.30;67.30
77013;BME280;67260;53.130;17.982;2023-07-09T02:48:23;101727.98;;;15.25;67.25
77013;BME280;67260;53.130;17.982;2023-07-09T02:50:49;101732.75;;;15.24;67.61
77013;BME280;67260;53.130;17.982;2023-07-09T02:53:15;101738.77;;;15.25;67.74
77013;BME280;67260;53.130;17.982;2023-07-09T02:55:41;101740.58;;;15.23;67.69
77013;BME280;67260;53.130;17.982;2023-07-09T02:58:08;101745.16;;;15.22;67.88
77013;BME280;67260;53.130;17.982;2023-07-09T03:00:34;101741.78;;;15.22;68.45
77013;BME280;67260;53.130;17.982;2023-07-09T03:03:00;101746.30;;;15.26;68.36
77013;BME280;67260;53.130;17.982;2023-07-09T03:05:26;101749.35;;;15.25;68.23
77013;BME280;67260;53.130;17.982;2023-07-09T03:07:52;101751.56;;;15.27;68.44
77013;BME280;67260;53.130;17.982;2023-07-09T03:10:18;101751.98;;;15.36;68.28
77013;BME280;67260;53.130;17.982;2023-07-09T03:12:44;101756.22;;;15.45;68.23
77013;BME280;67260;53.130;17.982;2023-07-09T03:15:11;101757.91;;;15.55;68.20
77013;BME280;67260;53.130;17.982;2023-07-09T03:17:37;101755.48;;;15.61;67.82
77013;BME280;67260;53.130;17.982;2023-07-09T03:20:04;101761.35;;;15.66;67.71
77013;BME280;67260;53.130;17.982;2023-07-09T03:22:31;101760.33;;;15.71;67.71
77013;BME280;67260;53.130;17.982;2023-07-09T03:24:58;101761.85;;;15.71;67.70
77013;BME280;67260;53.130;17.982;2023-07-09T03:27:24;101766.27;;;15.70;67.78
77013;BME280;67260;53.130;17.982;2023-07-09T03:29:50;101766.52;;;15.76;67.69
77013;BME280;67260;53.130;17.982;2023-07-09T03:32:16;101774.13;;;15.86;67.72
77013;BME280;67260;53.130;17.982;2023-07-09T03:34:42;101772.68;;;15.99;67.46
77013;BME280;67260;53.130;17.982;2023-07-09T03:37:08;101772.92;;;16.12;67.24
77013;BME280;67260;53.130;17.982;2023-07-09T03:39:34;101776.02;;;16.18;67.08
77013;BME280;67260;53.130;17.982;2023-07-09T03:42:00;101776.60;;;16.22;67.01
77013;BME280;67260;53.130;17.982;2023-07-09T03:44:26;101776.40;;;16.27;67.03
77013;BME280;67260;53.130;17.982;2023-07-09T03:46:52;101774.98;;;16.33;66.89
77013;BME280;67260;53.130;17.982;2023-07-09T03:49:18;101780.32;;;16.38;66.78
77013;BME280;67260;53.130;17.982;2023-07-09T03:51:44;101771.36;;;16.39;66.79
77013;BME280;67260;53.130;17.982;2023-07-09T03:54:10;101774.66;;;16.48;66.59
77013;BME280;67260;53.130;17.982;2023-07-09T03:56:36;101771.45;;;16.55;66.46
77013;BME280;67260;53.130;17.982;2023-07-09T03:59:02;101765.43;;;16.55;66.48
77013;BME280;67260;53.130;17.982;2023-07-09T04:01:29;101769.25;;;16.53;66.45
77013;BME280;67260;53.130;17.982;2023-07-09T04:03:54;101768.66;;;16.50;66.52
77013;BME280;67260;53.130;17.982;2023-07-09T04:06:20;101767.36;;;16.47;66.77
77013;BME280;67260;53.130;17.982;2023-07-09T04:08:46;101769.59;;;16.44;66.77
77013;BME280;67260;53.130;17.982;2023-07-09T04:11:12;101769.47;;;16.32;66.98
77013;BME280;67260;53.130;17.982;2023-07-09T04:13:38;101769.18;;;16.28;67.13
77013;BME280;67260;53.130;17.982;2023-07-09T04:16:04;101773.19;;;16.27;67.22
77013;BME280;67260;53.130;17.982;2023-07-09T04:18:30;101777.35;;;16.37;67.26
77013;BME280;67260;53.130;17.982;2023-07-09T04:20:56;101773.49;;;16.62;67.09
77013;BME280;67260;53.130;17.982;2023-07-09T04:23:22;101779.78;;;16.99;66.48
77013;BME280;67260;53.130;17.982;2023-07-09T04:25:48;101780.04;;;17.37;65.86
77013;BME280;67260;53.130;17.982;2023-07-09T04:28:15;101783.97;;;17.75;65.24
77013;BME280;67260;53.130;17.982;2023-07-09T04:30:51;101786.30;;;18.11;64.38
77013;BME280;67260;53.130;17.982;2023-07-09T04:33:18;101790.59;;;18.43;63.67
77013;BME280;67260;53.130;17.982;2023-07-09T04:35:45;101788.28;;;18.72;62.96
77013;BME280;67260;53.130;17.982;2023-07-09T04:38:12;101788.51;;;18.99;62.24
77013;BME280;67260;53.130;17.982;2023-07-09T04:40:39;101787.32;;;19.30;61.53
77013;BME280;67260;53.130;17.982;2023-07-09T04:43:05;101785.60;;;19.54;60.91
77013;BME280;67260;53.130;17.982;2023-07-09T04:45:31;101787.89;;;19.75;59.99
77013;BME280;67260;53.130;17.982;2023-07-09T04:47:57;101788.36;;;19.89;59.60
77013;BME280;67260;53.130;17.982;2023-07-09T04:50:23;101786.42;;;20.12;59.26
77013;BME280;67260;53.130;17.982;2023-07-09T04:52:49;101779.33;;;20.42;58.81
77013;BME280;67260;53.130;17.982;2023-07-09T04:55:14;101783.86;;;20.69;58.13
77013;BME280;67260;53.130;17.982;2023-07-09T04:57:40;101780.54;;;20.96;57.52
77013;BME280;67260;53.130;17.982;2023-07-09T05:00:06;101779.16;;;21.11;56.49
77013;BME280;67260;53.130;17.982;2023-07-09T05:02:33;101787.13;;;21.24;56.70
77013;BME280;67260;53.130;17.982;2023-07-09T05:04:59;101796.02;;;21.47;56.02
77013;BME280;67260;53.130;17.982;2023-07-09T05:07:26;101800.27;;;21.76;55.40
77013;BME280;67260;53.130;17.982;2023-07-09T05:09:53;101801.25;;;22.10;54.20
77013;BME280;67260;53.130;17.982;2023-07-09T05:12:19;101798.02;;;22.49;53.76
77013;BME280;67260;53.130;17.982;2023-07-09T05:14:47;101800.61;;;22.90;52.22
77013;BME280;67260;53.130;17.982;2023-07-09T05:17:13;101799.64;;;23.25;51.59
77013;BME280;67260;53.130;17.982;2023-07-09T05:19:38;101798.21;;;23.62;50.22
77013;BME280;67260;53.130;17.982;2023-07-09T05:22:04;101797.23;;;23.97;49.42
77013;BME280;67260;53.130;17.982;2023-07-09T05:24:31;101798.45;;;24.41;48.59
77013;BME280;67260;53.130;17.982;2023-07-09T05:26:57;101797.50;;;24.91;47.74
77013;BME280;67260;53.130;17.982;2023-07-09T05:29:23;101798.58;;;25.51;46.01
77013;BME280;67260;53.130;17.982;2023-07-09T05:31:49;101799.21;;;26.11;44.56
77013;BME280;67260;53.130;17.982;2023-07-09T05:34:15;101798.45;;;26.67;43.16
77013;BME280;67260;53.130;17.982;2023-07-09T05:36:41;101797.04;;;27.12;40.71
77013;BME280;67260;53.130;17.982;2023-07-09T05:39:07;101797.08;;;27.49;40.75
77013;BME280;67260;53.130;17.982;2023-07-09T05:41:33;101801.15;;;28.01;38.55
77013;BME280;67260;53.130;17.982;2023-07-09T05:43:59;101802.89;;;28.62;37.31
77013;BME280;67260;53.130;17.982;2023-07-09T05:46:25;101803.59;;;29.14;34.73
77013;BME280;67260;53.130;17.982;2023-07-09T05:48:51;101798.50;;;29.42;34.15
77013;BME280;67260;53.130;17.982;2023-07-09T05:51:17;101801.09;;;29.58;34.27
77013;BME280;67260;53.130;17.982;2023-07-09T05:53:43;101797.08;;;29.93;33.53
77013;BME280;67260;53.130;17.982;2023-07-09T05:56:09;101797.63;;;30.34;33.70
77013;BME280;67260;53.130;17.982;2023-07-09T05:58:36;101794.84;;;30.87;32.59
77013;BME280;67260;53.130;17.982;2023-07-09T06:01:02;101788.45;;;31.49;30.92
77013;BME280;67260;53.130;17.982;2023-07-09T06:03:29;101789.16;;;31.83;29.24
77013;BME280;67260;53.130;17.982;2023-07-09T06:05:56;101783.13;;;31.98;28.71
77013;BME280;67260;53.130;17.982;2023-07-09T06:08:23;101780.07;;;31.83;27.38
77013;BME280;67260;53.130;17.982;2023-07-09T06:11:00;101777.62;;;31.61;27.68
77013;BME280;67260;53.130;17.982;2023-07-09T06:13:28;101777.85;;;31.61;27.19
77013;BME280;67260;53.130;17.982;2023-07-09T06:15:57;101780.72;;;31.72;27.55
77013;BME280;67260;53.130;17.982;2023-07-09T06:18:25;101781.67;;;31.93;27.19
77013;BME280;67260;53.130;17.982;2023-07-09T06:20:59;101784.90;;;32.04;25.48
77013;BME280;67260;53.130;17.982;2023-07-09T06:23:26;101787.48;;;31.97;26.18
77013;BME280;67260;53.130;17.982;2023-07-09T06:25:52;101785.74;;;32.02;25.86
77013;BME280;67260;53.130;17.982;2023-07-09T06:28:22;101791.06;;;31.91;26.05
77013;BME280;67260;53.130;17.982;2023-07-09T06:30:49;101784.61;;;31.99;25.95
77013;BME280;67260;53.130;17.982;2023-07-09T06:33:18;101786.91;;;32.23;25.48
77013;BME280;67260;53.130;17.982;2023-07-09T06:35:49;101783.86;;;32.32;25.15
77013;BME280;67260;53.130;17.982;2023-07-09T06:38:16;101784.70;;;32.43;24.48
77013;BME280;67260;53.130;17.982;2023-07-09T06:40:43;101786.83;;;32.53;24.86
77013;BME280;67260;53.130;17.982;2023-07-09T06:43:09;101784.96;;;32.89;24.49
77013;BME280;67260;53.130;17.982;2023-07-09T06:45:37;101782.73;;;32.96;24.13
77013;BME280;67260;53.130;17.982;2023-07-09T06:48:04;101780.58;;;33.01;23.93
77013;BME280;67260;53.130;17.982;2023-07-09T06:50:34;101781.32;;;33.08;24.09
77013;BME280;67260;53.130;17.982;2023-07-09T06:53:00;101781.81;;;33.49;23.45
77013;BME280;67260;53.130;17.982;2023-07-09T06:55:26;101785.55;;;33.81;23.24
77013;BME280;67260;53.130;17.982;2023-07-09T06:57:52;101786.63;;;34.07;22.99
77013;BME280;67260;53.130;17.982;2023-07-09T07:00:19;101788.38;;;34.34;22.71
77013;BME280;67260;53.130;17.982;2023-07-09T07:02:45;101788.23;;;34.84;22.38
77013;BME280;67260;53.130;17.982;2023-07-09T07:05:11;101782.58;;;34.99;21.79
77013;BME280;67260;53.130;17.982;2023-07-09T07:07:37;101785.11;;;35.20;21.50
77013;BME280;67260;53.130;17.982;2023-07-09T07:10:03;101787.70;;;35.46;21.36
77013;BME280;67260;53.130;17.982;2023-07-09T07:12:41;101778.90;;;35.94;20.76
77013;BME280;67260;53.130;17.982;2023-07-09T07:15:08;101785.45;;;36.32;20.67
77013;BME280;67260;53.130;17.982;2023-07-09T07:17:34;101784.23;;;36.68;20.08
77013;BME280;67260;53.130;17.982;2023-07-09T07:20:00;101784.58;;;37.03;19.62
77013;BME280;67260;53.130;17.982;2023-07-09T07:22:26;101787.38;;;37.35;19.48
77013;BME280;67260;53.130;17.982;2023-07-09T07:24:52;101784.54;;;37.71;18.83
77013;BME280;67260;53.130;17.982;2023-07-09T07:27:18;101789.57;;;37.84;18.43
77013;BME280;67260;53.130;17.982;2023-07-09T07:29:44;101788.61;;;38.20;18.16
77013;BME280;67260;53.130;17.982;2023-07-09T07:32:11;101789.40;;;38.39;18.19
77013;BME280;67260;53.130;17.982;2023-07-09T07:34:37;101788.76;;;38.58;18.09
77013;BME280;67260;53.130;17.982;2023-07-09T07:37:03;101785.88;;;38.86;17.83
77013;BME280;67260;53.130;17.982;2023-07-09T07:39:30;101787.16;;;39.18;17.67
77013;BME280;67260;53.130;17.982;2023-07-09T07:41:57;101780.04;;;39.45;16.83
77013;BME280;67260;53.130;17.982;2023-07-09T07:44:23;101776.34;;;39.61;16.76
77013;BME280;67260;53.130;17.982;2023-07-09T07:46:49;101774.27;;;39.95;16.54
77013;BME280;67260;53.130;17.982;2023-07-09T07:49:15;101774.81;;;40.27;15.95
77013;BME280;67260;53.130;17.982;2023-07-09T07:51:41;101779.75;;;40.34;15.98
77013;BME280;67260;53.130;17.982;2023-07-09T07:54:08;101780.18;;;40.46;15.81
77013;BME280;67260;53.130;17.982;2023-07-09T07:56:36;101779.12;;;40.54;15.36
77013;BME280;67260;53.130;17.982;2023-07-09T07:59:03;101777.95;;;40.21;15.37
77013;BME280;67260;53.130;17.982;2023-07-09T08:01:29;101778.00;;;40.09;15.28
77013;BME280;67260;53.130;17.982;2023-07-09T08:03:55;101777.30;;;40.20;15.48
77013;BME280;67260;53.130;17.982;2023-07-09T08:06:21;101776.25;;;40.35;15.29
77013;BME280;67260;53.130;17.982;2023-07-09T08:08:48;101777.24;;;40.06;15.73
77013;BME280;67260;53.130;17.982;2023-07-09T08:11:14;101778.04;;;40.06;15.61
77013;BME280;67260;53.130;17.982;2023-07-09T08:13:40;101780.06;;;39.87;15.44
77013;BME280;67260;53.130;17.982;2023-07-09T08:16:07;101780.50;;;39.70;15.59
77013;BME280;67260;53.130;17.982;2023-07-09T08:18:34;101778.86;;;39.51;15.79
77013;BME280;67260;53.130;17.982;2023-07-09T08:21:00;101778.96;;;39.47;15.96
77013;BME280;67260;53.130;17.982;2023-07-09T08:23:26;101777.04;;;39.40;15.97
77013;BME280;67260;53.130;17.982;2023-07-09T08:25:58;101775.25;;;39.42;15.81
77013;BME280;67260;53.130;17.982;2023-07-09T08:28:25;101776.73;;;39.51;15.92
77013;BME280;67260;53.130;17.982;2023-07-09T08:30:52;101776.57;;;39.60;16.13
77013;BME280;67260;53.130;17.982;2023-07-09T08:33:20;101771.35;;;39.69;16.13
77013;BME280;67260;53.130;17.982;2023-07-09T08:35:49;101765.77;;;39.97;16.23
77013;BME280;67260;53.130;17.982;2023-07-09T08:38:15;101764.49;;;40.12;15.38
77013;BME280;67260;53.130;17.982;2023-07-09T08:43:50;101763.46;;;39.47;15.94
77013;BME280;67260;53.130;17.982;2023-07-09T08:48:54;101760.05;;;38.94;16.36
77013;BME280;67260;53.130;17.982;2023-07-09T08:51:36;101759.66;;;38.59;16.56
77013;BME280;67260;53.130;17.982;2023-07-09T08:54:12;101760.05;;;38.34;16.29
77013;BME280;67260;53.130;17.982;2023-07-09T08:56:41;101759.17;;;38.24;16.59
77013;BME280;67260;53.130;17.982;2023-07-09T08:59:09;101758.05;;;38.15;16.38
77013;BME280;67260;53.130;17.982;2023-07-09T09:01:53;101756.04;;;37.92;16.42
77013;BME280;67260;53.130;17.982;2023-07-09T09:04:31;101750.55;;;37.83;16.98
77013;BME280;67260;53.130;17.982;2023-07-09T09:07:16;101752.34;;;37.94;16.94
77013;BME280;67260;53.130;17.982;2023-07-09T09:09:58;101751.31;;;37.93;17.01
77013;BME280;67260;53.130;17.982;2023-07-09T09:12:31;101754.39;;;37.89;15.99
77013;BME280;67260;53.130;17.982;2023-07-09T09:15:17;101750.55;;;37.70;15.62
77013;BME280;67260;53.130;17.982;2023-07-09T09:17:57;101749.33;;;37.61;15.47
77013;BME280;67260;53.130;17.982;2023-07-09T09:20:24;101740.48;;;37.67;15.40
77013;BME280;67260;53.130;17.982;2023-07-09T09:25:39;101732.74;;;37.80;16.04
77013;BME280;67260;53.130;17.982;2023-07-09T09:28:09;101731.55;;;38.01;15.79
77013;BME280;67260;53.130;17.982;2023-07-09T09:30:36;101724.48;;;37.92;15.98
77013;BME280;67260;53.130;17.982;2023-07-09T09:33:08;101727.16;;;37.63;16.61
77013;BME280;67260;53.130;17.982;2023-07-09T09:35:39;101727.98;;;37.43;16.70
77013;BME280;67260;53.130;17.982;2023-07-09T09:38:16;101726.36;;;37.37;16.92
77013;BME280;67260;53.130;17.982;2023-07-09T09:40:45;101728.88;;;37.08;16.64
77013;BME280;67260;53.130;17.982;2023-07-09T09:43:18;101728.08;;;36.93;16.41
77013;BME280;67260;53.130;17.982;2023-07-09T09:45:49;101731.61;;;36.62;16.47
77013;BME280;67260;53.130;17.982;2023-07-09T09:48:27;101733.44;;;36.29;17.06
77013;BME280;67260;53.130;17.982;2023-07-09T09:50:53;101738.18;;;36.11;17.10
77013;BME280;67260;53.130;17.982;2023-07-09T09:53:23;101736.45;;;36.09;16.79
77013;BME280;67260;53.130;17.982;2023-07-09T09:55:53;101735.86;;;36.17;17.02
77013;BME280;67260;53.130;17.982;2023-07-09T09:58:27;101735.35;;;36.21;16.84
77013;BME280;67260;53.130;17.982;2023-07-09T10:00:57;101730.31;;;36.21;16.60
77013;BME280;67260;53.130;17.982;2023-07-09T10:03:35;101731.94;;;36.02;17.35
77013;BME280;67260;53.130;17.982;2023-07-09T10:09:20;101728.48;;;35.85;17.46
77013;BME280;67260;53.130;17.982;2023-07-09T10:12:25;101724.43;;;35.54;17.78
77013;BME280;67260;53.130;17.982;2023-07-09T10:15:00;101725.42;;;35.47;17.89
77013;BME280;67260;53.130;17.982;2023-07-09T10:23:39;101736.69;;;35.63;17.58
77013;BME280;67260;53.130;17.982;2023-07-09T10:26:30;101738.61;;;35.61;17.71
77013;BME280;67260;53.130;17.982;2023-07-09T10:31:57;101736.13;;;35.43;18.22
77013;BME280;67260;53.130;17.982;2023-07-09T10:34:34;101736.80;;;35.30;18.14
77013;BME280;67260;53.130;17.982;2023-07-09T10:39:59;101736.55;;;35.25;18.17
77013;BME280;67260;53.130;17.982;2023-07-09T10:42:34;101740.88;;;35.25;17.89
77013;BME280;67260;53.130;17.982;2023-07-09T10:45:19;101741.34;;;35.16;17.58
77013;BME280;67260;53.130;17.982;2023-07-09T10:47:51;101734.22;;;35.18;18.02
77013;BME280;67260;53.130;17.982;2023-07-09T10:50:33;101734.77;;;35.21;17.93
77013;BME280;67260;53.130;17.982;2023-07-09T10:53:20;101733.25;;;35.20;17.82
77013;BME280;67260;53.130;17.982;2023-07-09T10:55:55;101727.77;;;35.24;17.60
77013;BME280;67260;53.130;17.982;2023-07-09T11:00:59;101721.36;;;35.27;17.46
77013;BME280;67260;53.130;17.982;2023-07-09T11:07:00;101726.99;;;35.61;17.31
77013;BME280;67260;53.130;17.982;2023-07-09T11:09:33;101723.92;;;35.58;17.32
77013;BME280;67260;53.130;17.982;2023-07-09T11:12:08;101729.37;;;35.47;17.26
77013;BME280;67260;53.130;17.982;2023-07-09T11:14:40;101729.16;;;35.15;17.35
77013;BME280;67260;53.130;17.982;2023-07-09T11:17:18;101731.81;;;34.84;17.49
77013;BME280;67260;53.130;17.982;2023-07-09T11:19:53;101736.06;;;34.50;17.86
77013;BME280;67260;53.130;17.982;2023-07-09T11:22:25;101730.58;;;34.20;18.18
77013;BME280;67260;53.130;17.982;2023-07-09T11:25:10;101724.16;;;34.14;18.41
77013;BME280;67260;53.130;17.982;2023-07-09T11:27:50;101722.38;;;34.22;18.33
77013;BME280;67260;53.130;17.982;2023-07-09T11:30:23;101722.60;;;34.14;18.31
77013;BME280;67260;53.130;17.982;2023-07-09T11:32:57;101717.42;;;34.10;18.44
77013;BME280;67260;53.130;17.982;2023-07-09T11:35:29;101717.46;;;34.15;18.25
77013;BME280;67260;53.130;17.982;2023-07-09T11:37:56;101721.46;;;34.00;18.32
77013;BME280;67260;53.130;17.982;2023-07-09T11:40:26;101715.28;;;33.90;18.27
77013;BME280;67260;53.130;17.982;2023-07-09T11:42:58;101716.92;;;33.87;18.24
77013;BME280;67260;53.130;17.982;2023-07-09T11:45:35;101714.28;;;33.76;18.37
77013;BME280;67260;53.130;17.982;2023-07-09T11:48:25;101716.40;;;33.82;18.60
77013;BME280;67260;53.130;17.982;2023-07-09T11:50:54;101715.60;;;33.93;18.95
77013;BME280;67260;53.130;17.982;2023-07-09T11:53:46;101712.79;;;33.86;18.87
77013;BME280;67260;53.130;17.982;2023-07-09T11:56:13;101706.17;;;33.74;18.68
77013;BME280;67260;53.130;17.982;2023-07-09T11:58:55;101704.04;;;33.67;18.83
77013;BME280;67260;53.130;17.982;2023-07-09T12:01:51;101698.95;;;33.59;19.09
77013;BME280;67260;53.130;17.982;2023-07-09T12:04:20;101694.95;;;33.53;19.19
77013;BME280;67260;53.130;17.982;2023-07-09T12:06:48;101692.15;;;33.26;19.70
77013;BME280;67260;53.130;17.982;2023-07-09T12:09:22;101687.18;;;33.23;19.71
77013;BME280;67260;53.130;17.982;2023-07-09T12:11:50;101688.74;;;33.27;19.45
77013;BME280;67260;53.130;17.982;2023-07-09T12:14:19;101685.83;;;33.35;19.73
77013;BME280;67260;53.130;17.982;2023-07-09T12:16:48;101680.02;;;33.32;19.47
77013;BME280;67260;53.130;17.982;2023-07-09T12:19:17;101676.38;;;33.25;19.75
77013;BME280;67260;53.130;17.982;2023-07-09T12:21:46;101674.16;;;33.18;20.25
77013;BME280;67260;53.130;17.982;2023-07-09T12:24:35;101676.86;;;33.15;20.25
77013;BME280;67260;53.130;17.982;2023-07-09T12:27:02;101667.84;;;33.07;20.47
77013;BME280;67260;53.130;17.982;2023-07-09T12:29:34;101666.13;;;32.89;20.38
77013;BME280;67260;53.130;17.982;2023-07-09T12:32:11;101663.08;;;32.74;20.58
77013;BME280;67260;53.130;17.982;2023-07-09T12:34:37;101659.33;;;32.80;20.88
77013;BME280;67260;53.130;17.982;2023-07-09T12:37:04;101657.79;;;33.01;20.98
77013;BME280;67260;53.130;17.982;2023-07-09T12:39:32;101658.16;;;33.07;20.62
77013;BME280;67260;53.130;17.982;2023-07-09T12:42:00;101659.23;;;32.98;20.66
77013;BME280;67260;53.130;17.982;2023-07-09T12:44:30;101657.15;;;32.91;20.52
77013;BME280;67260;53.130;17.982;2023-07-09T12:46:57;101649.39;;;32.72;20.61
77013;BME280;67260;53.130;17.982;2023-07-09T12:49:29;101649.43;;;32.41;20.76
77013;BME280;67260;53.130;17.982;2023-07-09T12:52:01;101647.27;;;32.13;21.12
77013;BME280;67260;53.130;17.982;2023-07-09T12:54:29;101643.20;;;31.83;21.65
77013;BME280;67260;53.130;17.982;2023-07-09T12:56:58;101637.41;;;31.69;21.54
77013;BME280;67260;53.130;17.982;2023-07-09T12:59:38;101633.25;;;31.54;21.56
77013;BME280;67260;53.130;17.982;2023-07-09T13:02:15;101635.88;;;31.29;21.84
77013;BME280;67260;53.130;17.982;2023-07-09T13:04:42;101634.80;;;31.12;22.14
77013;BME280;67260;53.130;17.982;2023-07-09T13:07:38;101634.98;;;31.04;22.05
77013;BME280;67260;53.130;17.982;2023-07-09T13:10:15;101631.27;;;30.95;22.18
77013;BME280;67260;53.130;17.982;2023-07-09T13:12:49;101628.80;;;30.96;22.37
77013;BME280;67260;53.130;17.982;2023-07-09T13:18:00;101627.70;;;30.93;23.00
77013;BME280;67260;53.130;17.982;2023-07-09T13:20:27;101624.57;;;30.87;22.67
77013;BME280;67260;53.130;17.982;2023-07-09T13:22:54;101631.41;;;30.81;22.56
77013;BME280;67260;53.130;17.982;2023-07-09T13:25:23;101629.58;;;30.66;22.86
77013;BME280;67260;53.130;17.982;2023-07-09T13:27:50;101624.28;;;30.47;22.93